Time;durP1;ratioP1;P1;durP2;ratioP2;P2;SDS_P1;SDS_P2;PMS_P1;PMS_P2;Temp;Humidity;BMP_temperature;BMP_pressure;BME280_temperature;BME280_humidity;BME280_pressure;Samples;Min_cycle;Max_cycle;Signal;HPM_P1;HPM_P2
2022/01/29 00:02:06;;;;;;;17.50;7.27;;;6.50;99.90;;;;;;5046618;28;20199;-66
2022/01/29 00:04:33;;;;;;;14.20;6.60;;;6.40;99.90;;;;;;5065238;28;20411;-66
2022/01/29 00:07:00;;;;;;;12.23;6.23;;;6.30;99.90;;;;;;5068816;28;20201;-66
2022/01/29 00:09:26;;;;;;;11.03;6.40;;;6.30;99.90;;;;;;5065098;28;20218;-67
2022/01/29 00:11:53;;;;;;;12.83;6.50;;;6.40;99.90;;;;;;5063980;28;20194;-67
2022/01/29 00:14:21;;;;;;;12.60;6.37;;;6.30;99.90;;;;;;5064951;28;20222;-67
2022/01/29 00:16:48;;;;;;;13.47;6.60;;;6.40;99.90;;;;;;5065453;28;20198;-67
2022/01/29 00:19:14;;;;;;;13.20;5.90;;;6.30;99.90;;;;;;5056494;28;20199;-67
2022/01/29 00:21:41;;;;;;;16.00;6.50;;;6.40;99.90;;;;;;5059406;28;20222;-67
2022/01/29 00:24:08;;;;;;;12.07;6.07;;;6.40;99.90;;;;;;5055350;28;20561;-67
2022/01/29 00:26:34;;;;;;;14.37;6.43;;;6.40;99.90;;;;;;5060828;28;20201;-67
2022/01/29 00:29:08;;;;;;;16.80;6.57;;;6.40;99.90;;;;;;5080907;28;20225;-67
2022/01/29 00:31:35;;;;;;;13.07;6.27;;;6.40;99.90;;;;;;5067066;28;20198;-67
2022/01/29 00:34:05;;;;;;;12.87;5.90;;;6.50;99.90;;;;;;5058768;28;20225;-67
2022/01/29 00:36:36;;;;;;;12.73;5.60;;;6.50;99.90;;;;;;5062409;28;20243;-67
2022/01/29 00:39:03;;;;;;;14.77;6.60;;;6.60;99.90;;;;;;5068028;28;20419;-67
2022/01/29 00:41:30;;;;;;;11.83;6.10;;;6.60;99.90;;;;;;5058978;28;20726;-67
2022/01/29 00:43:57;;;;;;;10.80;5.70;;;6.60;99.90;;;;;;5063054;28;20277;-67
2022/01/29 00:46:23;;;;;;;12.67;5.20;;;6.60;99.90;;;;;;5067302;28;20538;-67
2022/01/29 00:48:50;;;;;;;12.23;6.00;;;6.50;99.90;;;;;;5058187;28;20246;-67
2022/01/29 00:51:17;;;;;;;12.60;6.20;;;6.50;99.90;;;;;;5063236;28;20202;-67
2022/01/29 00:53:43;;;;;;;16.10;6.53;;;6.50;99.90;;;;;;5066494;28;20211;-67
2022/01/29 00:56:10;;;;;;;11.80;5.40;;;6.40;99.90;;;;;;5067525;28;20201;-67
2022/01/29 00:58:37;;;;;;;12.07;5.60;;;6.40;99.90;;;;;;5079874;28;20651;-67
2022/01/29 01:01:04;;;;;;;12.77;5.97;;;6.30;99.90;;;;;;5051710;28;20414;-67
2022/01/29 01:03:32;;;;;;;10.70;5.63;;;6.30;99.90;;;;;;5063497;28;20198;-67
2022/01/29 01:05:58;;;;;;;10.60;5.33;;;6.30;99.90;;;;;;5064514;28;20198;-67
2022/01/29 01:08:25;;;;;;;11.27;5.67;;;6.30;99.90;;;;;;5064074;28;20664;-67
2022/01/29 01:10:51;;;;;;;15.30;6.37;;;6.20;99.90;;;;;;5062445;28;20197;-67
2022/01/29 01:13:18;;;;;;;11.57;6.47;;;6.20;99.90;;;;;;5065798;28;20202;-67
2022/01/29 01:15:45;;;;;;;12.70;6.00;;;6.20;99.90;;;;;;5063681;28;20241;-67
2022/01/29 01:18:12;;;;;;;12.00;5.37;;;6.10;99.90;;;;;;5059498;28;20190;-67
2022/01/29 01:20:38;;;;;;;13.73;6.23;;;6.10;99.90;;;;;;5060584;28;20198;-67
2022/01/29 01:23:05;;;;;;;12.97;5.90;;;6.10;99.90;;;;;;5062249;28;20198;-67
2022/01/29 01:25:32;;;;;;;11.37;5.63;;;6.20;99.90;;;;;;5064236;28;20281;-67
2022/01/29 01:27:58;;;;;;;12.20;5.80;;;6.30;99.90;;;;;;5064971;28;20190;-67
2022/01/29 01:30:25;;;;;;;13.30;5.87;;;6.30;99.90;;;;;;5063807;28;20473;-67
2022/01/29 01:32:52;;;;;;;11.30;5.17;;;6.40;99.90;;;;;;5072877;28;20648;-67
2022/01/29 01:38:22;;;;;;;11.77;5.60;;;6.30;99.90;;;;;;5062329;28;20247;-67
2022/01/29 01:40:55;;;;;;;13.30;5.30;;;6.20;99.90;;;;;;5064837;28;20190;-67
2022/01/29 01:43:22;;;;;;;11.67;5.30;;;6.20;99.90;;;;;;5056852;28;20206;-67
2022/01/29 01:45:49;;;;;;;12.73;5.43;;;6.20;99.90;;;;;;5081581;28;20198;-67
2022/01/29 01:48:15;;;;;;;14.33;5.37;;;6.20;99.90;;;;;;5063750;28;20194;-67
2022/01/29 01:50:42;;;;;;;11.80;5.97;;;6.10;99.90;;;;;;5061478;28;20706;-67
2022/01/29 01:53:10;;;;;;;11.00;5.77;;;6.10;99.90;;;;;;5055594;28;20194;-67
2022/01/29 01:55:37;;;;;;;11.43;5.27;;;6.10;99.90;;;;;;5065165;28;20210;-67
2022/01/29 01:58:04;;;;;;;9.90;5.67;;;6.10;99.90;;;;;;5067882;28;20538;-67
2022/01/29 02:00:31;;;;;;;11.90;5.33;;;6.00;99.90;;;;;;5065858;28;20216;-68
2022/01/29 02:02:57;;;;;;;11.67;5.50;;;6.10;99.90;;;;;;5057091;28;20210;-67
2022/01/29 02:05:25;;;;;;;12.13;5.37;;;6.20;99.90;;;;;;5069647;28;20245;-67
2022/01/29 02:07:52;;;;;;;8.80;4.83;;;6.20;99.90;;;;;;5061353;28;20201;-67
2022/01/29 02:10:20;;;;;;;12.60;5.73;;;6.20;99.90;;;;;;5061838;28;20222;-67
2022/01/29 02:12:48;;;;;;;10.37;5.37;;;6.10;99.90;;;;;;5065718;28;20571;-67
2022/01/29 02:15:16;;;;;;;10.90;5.50;;;6.20;99.90;;;;;;5069325;28;20210;-67
2022/01/29 02:17:45;;;;;;;10.97;5.77;;;6.20;99.90;;;;;;5066508;28;20669;-67
2022/01/29 02:20:16;;;;;;;9.20;4.73;;;6.20;99.90;;;;;;5065735;28;20202;-67
2022/01/29 02:22:45;;;;;;;10.57;5.50;;;6.20;99.90;;;;;;5079734;28;20203;-67
2022/01/29 02:25:32;;;;;;;11.00;5.60;;;6.20;99.90;;;;;;5070306;28;20222;-67
2022/01/29 02:28:01;;;;;;;11.33;5.13;;;6.20;99.90;;;;;;5065797;28;20200;-67
2022/01/29 02:30:31;;;;;;;9.23;4.70;;;6.20;99.90;;;;;;5063576;28;20249;-67
2022/01/29 02:32:58;;;;;;;9.30;4.57;;;6.20;99.90;;;;;;5063162;28;20677;-67
2022/01/29 02:35:26;;;;;;;9.97;5.33;;;6.20;99.90;;;;;;5083483;28;20215;-67
2022/01/29 02:37:53;;;;;;;10.07;4.93;;;6.20;99.90;;;;;;5061705;28;20203;-67
2022/01/29 02:40:21;;;;;;;9.97;4.90;;;6.10;99.90;;;;;;5063489;28;20205;-67
2022/01/29 02:42:50;;;;;;;9.47;5.30;;;6.10;99.90;;;;;;5065487;28;20277;-67
2022/01/29 02:45:17;;;;;;;9.57;5.30;;;6.20;99.90;;;;;;5067866;28;20222;-67
2022/01/29 02:47:43;;;;;;;8.47;4.43;;;6.20;99.90;;;;;;5061235;28;20567;-67
2022/01/29 02:50:10;;;;;;;8.17;4.83;;;6.20;99.90;;;;;;5063948;28;20707;-67
2022/01/29 02:52:37;;;;;;;10.60;5.43;;;6.20;99.90;;;;;;5065403;28;20493;-67
2022/01/29 02:55:05;;;;;;;11.17;5.33;;;6.20;99.90;;;;;;5067845;28;20703;-67
2022/01/29 02:57:32;;;;;;;8.63;5.27;;;6.20;99.90;;;;;;5067311;28;20191;-67
2022/01/29 03:00:00;;;;;;;9.97;5.63;;;6.10;99.90;;;;;;5065315;28;20240;-67
2022/01/29 03:02:30;;;;;;;11.13;5.80;;;6.20;99.90;;;;;;5058966;28;20672;-67
2022/01/29 03:04:57;;;;;;;9.67;5.47;;;6.10;99.90;;;;;;5066877;28;20218;-67
2022/01/29 03:07:24;;;;;;;11.40;5.63;;;6.10;99.90;;;;;;5065012;28;20205;-67
2022/01/29 03:09:50;;;;;;;9.63;5.43;;;6.20;99.90;;;;;;5070330;28;20211;-67
2022/01/29 03:12:17;;;;;;;10.23;5.60;;;6.20;99.90;;;;;;5059398;28;20199;-66
2022/01/29 03:14:44;;;;;;;12.43;6.13;;;6.10;99.90;;;;;;5063639;28;20222;-66
2022/01/29 03:17:11;;;;;;;13.37;5.73;;;6.00;99.90;;;;;;5065049;28;20194;-66
2022/01/29 03:19:37;;;;;;;13.47;6.13;;;6.00;99.90;;;;;;5063551;28;20661;-66
2022/01/29 03:22:04;;;;;;;12.27;6.37;;;6.00;99.90;;;;;;5064596;28;20207;-66
2022/01/29 03:24:31;;;;;;;15.03;6.40;;;6.10;99.90;;;;;;5064741;28;20222;-66
2022/01/29 03:26:57;;;;;;;12.90;6.23;;;6.00;99.90;;;;;;5069886;28;20198;-66
2022/01/29 03:29:24;;;;;;;13.30;6.73;;;6.00;99.90;;;;;;5066310;28;20214;-66
2022/01/29 03:31:51;;;;;;;12.77;5.97;;;5.90;99.90;;;;;;5069119;28;20264;-66
2022/01/29 03:34:17;;;;;;;15.60;6.57;;;6.00;99.90;;;;;;5070456;28;20242;-66
2022/01/29 03:36:44;;;;;;;14.37;6.57;;;6.00;99.90;;;;;;5069962;28;20202;-66
2022/01/29 03:39:11;;;;;;;12.67;6.47;;;5.90;99.90;;;;;;5065076;28;20198;-66
2022/01/29 03:41:38;;;;;;;14.53;7.03;;;5.90;99.90;;;;;;5068960;28;20194;-66
2022/01/29 03:44:07;;;;;;;13.53;6.13;;;6.00;99.90;;;;;;5058473;28;20723;-67
2022/01/29 03:46:33;;;;;;;11.73;6.30;;;5.90;99.90;;;;;;5067177;28;20285;-67
2022/01/29 03:49:01;;;;;;;12.87;5.93;;;5.90;99.90;;;;;;5068105;28;20217;-67
2022/01/29 03:51:27;;;;;;;14.43;6.50;;;5.90;99.90;;;;;;5068758;28;20205;-67
2022/01/29 03:53:54;;;;;;;12.73;6.80;;;5.90;99.90;;;;;;5065136;28;20217;-67
2022/01/29 03:56:21;;;;;;;12.13;6.90;;;5.90;99.90;;;;;;5053593;28;20203;-67
2022/01/29 03:58:48;;;;;;;12.43;6.80;;;5.90;99.90;;;;;;5068057;28;20189;-67
2022/01/29 04:01:15;;;;;;;13.97;7.03;;;5.90;99.90;;;;;;5068397;28;20190;-67
2022/01/29 04:03:42;;;;;;;14.80;7.37;;;5.90;99.90;;;;;;5058969;28;20221;-66
2022/01/29 04:06:09;;;;;;;12.23;6.97;;;6.00;99.90;;;;;;5064998;28;20191;-66
2022/01/29 04:08:40;;;;;;;16.33;6.73;;;6.00;99.90;;;;;;5075885;28;20609;-66
2022/01/29 04:11:13;;;;;;;14.90;7.00;;;6.00;99.90;;;;;;5066298;28;20225;-66
2022/01/29 04:13:44;;;;;;;13.00;7.13;;;6.00;99.90;;;;;;5060776;28;20209;-66
2022/01/29 04:16:12;;;;;;;11.80;6.77;;;6.10;99.90;;;;;;5060354;28;20205;-66
2022/01/29 04:18:39;;;;;;;12.70;7.03;;;6.00;99.90;;;;;;5068027;28;20233;-66
2022/01/29 04:21:06;;;;;;;14.13;6.40;;;6.10;99.90;;;;;;5064096;28;20208;-66
2022/01/29 04:23:34;;;;;;;12.83;6.67;;;6.00;99.90;;;;;;5062535;28;20190;-67
2022/01/29 04:26:02;;;;;;;13.63;7.00;;;6.10;99.90;;;;;;5060368;28;20194;-66
2022/01/29 04:28:34;;;;;;;11.47;6.60;;;6.20;99.90;;;;;;5065580;28;20195;-66
2022/01/29 04:31:06;;;;;;;15.43;7.30;;;6.20;99.90;;;;;;5061572;28;20218;-66
2022/01/29 04:33:33;;;;;;;14.67;7.30;;;6.20;99.90;;;;;;5064237;28;20201;-66
2022/01/29 04:36:03;;;;;;;17.53;6.93;;;6.20;99.90;;;;;;5058445;28;20386;-66
2022/01/29 04:38:30;;;;;;;12.20;6.40;;;6.10;99.90;;;;;;5066692;28;20198;-66
2022/01/29 04:41:03;;;;;;;12.07;6.53;;;6.20;99.90;;;;;;5062526;28;20679;-67
2022/01/29 04:43:32;;;;;;;14.13;6.83;;;6.10;99.90;;;;;;5067044;28;20206;-66
2022/01/29 04:46:00;;;;;;;13.63;7.00;;;6.20;99.90;;;;;;5063608;28;20194;-67
2022/01/29 04:48:27;;;;;;;13.53;6.83;;;6.20;99.90;;;;;;5066658;28;20286;-66
2022/01/29 04:50:54;;;;;;;12.77;6.40;;;6.30;99.90;;;;;;5062832;28;20214;-66
2022/01/29 04:53:20;;;;;;;12.97;6.57;;;6.20;99.90;;;;;;5065160;28;20201;-66
2022/01/29 04:55:47;;;;;;;14.43;7.17;;;6.30;99.90;;;;;;5058644;28;20471;-67
2022/01/29 04:58:14;;;;;;;13.47;6.50;;;6.30;99.90;;;;;;5067335;28;20240;-66
2022/01/29 05:00:40;;;;;;;14.80;6.70;;;6.20;99.90;;;;;;5062339;28;20754;-66
2022/01/29 05:03:13;;;;;;;14.17;6.33;;;6.30;99.90;;;;;;5067518;28;20251;-66
2022/01/29 05:05:41;;;;;;;12.97;6.10;;;6.20;99.90;;;;;;5065540;28;20222;-66
2022/01/29 05:08:08;;;;;;;12.33;6.33;;;6.10;99.90;;;;;;5065106;28;20218;-67
2022/01/29 05:10:35;;;;;;;13.13;6.40;;;6.20;99.90;;;;;;5064693;28;20217;-67
2022/01/29 05:13:08;;;;;;;13.30;6.87;;;6.20;99.90;;;;;;5066500;28;20197;-67
2022/01/29 05:15:41;;;;;;;10.60;6.03;;;6.20;99.90;;;;;;5059981;28;20207;-67
2022/01/29 05:29:12;;;;;;;14.10;6.40;;;6.20;99.90;;;;;;5064847;28;20206;-67
2022/01/29 05:31:39;;;;;;;11.27;5.77;;;6.20;99.90;;;;;;5059259;28;20715;-67
2022/01/29 05:34:06;;;;;;;12.50;5.80;;;6.20;99.90;;;;;;5063094;28;20210;-67
2022/01/29 05:36:32;;;;;;;11.93;5.90;;;6.20;99.90;;;;;;5066427;28;20205;-67
2022/01/29 05:38:59;;;;;;;11.23;5.50;;;6.20;99.90;;;;;;5064275;28;20190;-67
2022/01/29 05:41:28;;;;;;;8.80;5.20;;;6.10;99.90;;;;;;5063575;28;20199;-66
2022/01/29 05:43:55;;;;;;;8.83;5.27;;;6.20;99.90;;;;;;5058653;28;20237;-66
2022/01/29 05:46:22;;;;;;;11.77;5.77;;;6.20;99.90;;;;;;5066286;28;20694;-66
2022/01/29 05:48:49;;;;;;;11.13;5.00;;;6.30;99.90;;;;;;5065264;28;21200;-67
2022/01/29 05:51:15;;;;;;;12.40;5.77;;;6.30;99.90;;;;;;5065790;28;20235;-67
2022/01/29 05:53:42;;;;;;;9.80;5.27;;;6.30;99.90;;;;;;5061902;28;20708;-67
2022/01/29 05:56:09;;;;;;;11.97;5.33;;;6.30;99.90;;;;;;5063294;28;20190;-67
2022/01/29 05:58:36;;;;;;;10.53;5.53;;;6.30;99.90;;;;;;5063060;28;20198;-67
2022/01/29 06:01:04;;;;;;;10.20;5.30;;;6.40;99.90;;;;;;5056433;28;20196;-67
2022/01/29 06:03:30;;;;;;;11.67;5.93;;;6.40;99.90;;;;;;5063686;28;20201;-67
2022/01/29 06:05:57;;;;;;;10.67;5.40;;;6.40;99.90;;;;;;5064713;28;20217;-67
2022/01/29 06:08:24;;;;;;;10.00;5.33;;;6.40;99.90;;;;;;5066404;28;20194;-67
2022/01/29 06:10:51;;;;;;;8.60;4.80;;;6.50;99.90;;;;;;5066421;28;20214;-67
2022/01/29 06:13:17;;;;;;;10.13;5.30;;;6.50;99.90;;;;;;5056447;28;20247;-67
2022/01/29 06:15:50;;;;;;;9.23;4.63;;;6.40;99.90;;;;;;5058482;28;20186;-67
2022/01/29 06:18:19;;;;;;;11.67;5.10;;;6.30;99.90;;;;;;5063944;28;20202;-67
2022/01/29 06:20:48;;;;;;;8.90;4.93;;;6.30;99.90;;;;;;5063660;28;20213;-67
2022/01/29 06:23:17;;;;;;;9.77;4.90;;;6.20;99.90;;;;;;5054541;28;20194;-67
2022/01/29 06:25:44;;;;;;;9.20;4.77;;;6.30;99.90;;;;;;5063187;28;20191;-67
2022/01/29 06:28:11;;;;;;;10.37;5.30;;;6.20;99.90;;;;;;5065405;28;20592;-67
2022/01/29 06:30:37;;;;;;;10.57;5.30;;;6.20;99.90;;;;;;5062539;28;20225;-67
2022/01/29 06:33:09;;;;;;;9.37;5.10;;;6.20;99.90;;;;;;5060622;28;20561;-67
2022/01/29 06:35:37;;;;;;;10.83;5.80;;;6.10;99.90;;;;;;5062832;28;20218;-67
2022/01/29 06:38:08;;;;;;;14.50;5.30;;;6.20;99.90;;;;;;5065416;28;20247;-67
2022/01/29 06:40:36;;;;;;;12.13;5.80;;;6.10;99.90;;;;;;5065622;28;20202;-67
2022/01/29 06:43:04;;;;;;;9.70;4.97;;;6.10;99.90;;;;;;5063819;28;20217;-67
2022/01/29 06:45:37;;;;;;;11.27;5.13;;;6.20;99.90;;;;;;5065998;28;20800;-66
2022/01/29 06:48:04;;;;;;;9.50;4.87;;;6.20;99.90;;;;;;5066622;28;20197;-66
2022/01/29 06:50:32;;;;;;;10.50;5.30;;;6.20;99.90;;;;;;5069872;28;20214;-66
2022/01/29 06:52:59;;;;;;;9.97;5.47;;;6.10;99.90;;;;;;5067846;28;20190;-66
2022/01/29 06:55:26;;;;;;;9.63;5.23;;;6.00;99.90;;;;;;5065778;28;20574;-66
2022/01/29 06:57:53;;;;;;;9.67;5.30;;;6.00;99.90;;;;;;5062275;28;20240;-66
2022/01/29 07:00:39;;;;;;;9.77;5.03;;;6.10;99.90;;;;;;5065876;28;20261;-66
2022/01/29 07:03:06;;;;;;;10.20;5.03;;;6.10;99.90;;;;;;5064599;28;20294;-66
2022/01/29 07:05:33;;;;;;;10.93;4.73;;;6.20;99.90;;;;;;5067653;28;20250;-66
2022/01/29 07:08:00;;;;;;;13.00;5.03;;;6.10;99.90;;;;;;5062117;28;20255;-66
2022/01/29 07:10:26;;;;;;;9.30;4.83;;;6.20;99.90;;;;;;5064797;28;20588;-66
2022/01/29 07:12:53;;;;;;;11.33;5.50;;;6.20;99.90;;;;;;5064954;28;20281;-66
2022/01/29 07:15:20;;;;;;;9.90;5.40;;;6.10;99.90;;;;;;5059530;28;20236;-67
2022/01/29 07:17:47;;;;;;;10.37;5.20;;;6.00;99.90;;;;;;5065555;28;20198;-66
2022/01/29 07:20:13;;;;;;;8.33;4.80;;;6.00;99.90;;;;;;5066615;28;20200;-67
2022/01/29 07:22:41;;;;;;;7.67;4.53;;;6.00;99.90;;;;;;5055747;28;20197;-67
2022/01/29 07:25:08;;;;;;;11.43;5.30;;;5.90;99.90;;;;;;5063797;28;20225;-67
2022/01/29 07:27:34;;;;;;;10.90;4.87;;;6.00;99.90;;;;;;5062347;28;20209;-67
2022/01/29 07:30:01;;;;;;;9.00;4.33;;;5.90;99.90;;;;;;5069376;28;20201;-67
2022/01/29 07:32:28;;;;;;;7.83;4.83;;;5.90;99.90;;;;;;5064324;28;20197;-67
2022/01/29 07:34:54;;;;;;;8.77;4.33;;;5.90;99.90;;;;;;5062564;28;20605;-67
2022/01/29 07:37:21;;;;;;;8.53;4.63;;;5.80;99.90;;;;;;5065992;28;20206;-67
2022/01/29 07:39:48;;;;;;;7.83;4.37;;;5.90;99.90;;;;;;5067476;28;20664;-67
2022/01/29 07:42:14;;;;;;;8.30;3.93;;;6.00;99.90;;;;;;5059459;28;20191;-67
2022/01/29 07:44:41;;;;;;;7.17;4.27;;;6.00;99.90;;;;;;5059528;28;20233;-67
2022/01/29 07:47:08;;;;;;;7.10;4.10;;;6.10;99.90;;;;;;5063426;28;20637;-67
2022/01/29 07:49:35;;;;;;;7.20;4.20;;;6.20;99.90;;;;;;5067483;28;20202;-68
2022/01/29 07:52:02;;;;;;;5.90;3.43;;;6.20;99.90;;;;;;5065370;28;20226;-68
2022/01/29 07:54:29;;;;;;;7.53;3.60;;;6.30;99.90;;;;;;5063441;28;20255;-68
2022/01/29 07:56:56;;;;;;;8.43;3.90;;;6.30;99.90;;;;;;5060716;28;20202;-68
2022/01/29 07:59:22;;;;;;;7.37;4.10;;;6.30;99.90;;;;;;5062888;28;20209;-68
2022/01/29 08:01:49;;;;;;;7.83;3.40;;;6.40;99.90;;;;;;5066197;28;20664;-64
2022/01/29 08:04:16;;;;;;;7.30;3.30;;;6.50;99.90;;;;;;5064776;28;20249;-66
2022/01/29 08:06:43;;;;;;;7.40;3.23;;;6.60;99.90;;;;;;5064921;28;20215;-67
2022/01/29 08:09:09;;;;;;;6.33;3.57;;;6.60;99.90;;;;;;5059978;28;20711;-67
2022/01/29 08:11:36;;;;;;;7.40;3.87;;;6.50;99.90;;;;;;5066226;28;20232;-65
2022/01/29 08:14:03;;;;;;;9.70;3.50;;;6.50;99.90;;;;;;5061280;28;20217;-67
2022/01/29 08:16:29;;;;;;;7.07;4.20;;;6.50;99.90;;;;;;5057657;28;20198;-67
2022/01/29 08:18:56;;;;;;;7.07;3.80;;;6.50;99.90;;;;;;5067784;28;20257;-71
2022/01/29 08:21:23;;;;;;;6.43;3.50;;;6.60;99.90;;;;;;5067710;28;20201;-67
2022/01/29 08:23:50;;;;;;;6.80;3.60;;;6.50;99.90;;;;;;5068414;28;20293;-68
2022/01/29 08:26:17;;;;;;;6.23;3.40;;;6.40;99.90;;;;;;5059263;28;20195;-68
2022/01/29 08:28:43;;;;;;;6.00;3.67;;;6.40;99.90;;;;;;5059276;28;20642;-67
2022/01/29 08:31:10;;;;;;;5.73;3.67;;;6.50;99.90;;;;;;5067270;28;20592;-68
2022/01/29 08:33:37;;;;;;;7.47;3.70;;;6.40;99.90;;;;;;5057333;28;20660;-66
2022/01/29 08:36:04;;;;;;;6.20;3.60;;;6.40;99.90;;;;;;5051229;28;20198;-68
2022/01/29 08:38:31;;;;;;;6.07;3.60;;;6.30;99.90;;;;;;5054664;28;20209;-67
2022/01/29 08:40:58;;;;;;;7.43;4.10;;;6.20;99.90;;;;;;5066737;28;20210;-66
2022/01/29 08:43:26;;;;;;;6.60;3.70;;;6.20;99.90;;;;;;5058370;28;20250;-67
2022/01/29 08:45:54;;;;;;;7.53;3.87;;;6.20;99.90;;;;;;5056557;28;20205;-67
2022/01/29 08:48:22;;;;;;;4.97;3.43;;;6.20;99.90;;;;;;5057184;28;20201;-67
2022/01/29 08:50:49;;;;;;;6.63;3.80;;;6.30;99.90;;;;;;5056771;28;20238;-67
2022/01/29 08:53:17;;;;;;;5.43;3.57;;;6.40;99.90;;;;;;5061210;28;20186;-67
2022/01/29 08:55:44;;;;;;;6.63;3.77;;;6.30;99.90;;;;;;5058226;28;20640;-68
2022/01/29 08:58:11;;;;;;;7.10;3.47;;;6.20;99.90;;;;;;5062475;28;20259;-67
2022/01/29 09:00:41;;;;;;;4.97;3.07;;;6.20;99.90;;;;;;5066050;28;20783;-68
2022/01/29 09:03:08;;;;;;;5.60;3.20;;;6.10;99.90;;;;;;5063647;28;20209;-69
2022/01/29 09:05:34;;;;;;;5.57;3.33;;;6.10;99.90;;;;;;5055219;28;20218;-68
2022/01/29 09:08:03;;;;;;;5.33;2.90;;;6.10;99.90;;;;;;5056348;28;20191;-71
2022/01/29 09:10:31;;;;;;;6.13;3.47;;;6.20;99.90;;;;;;5070678;28;20194;-66
2022/01/29 09:12:58;;;;;;;4.83;2.77;;;6.30;99.90;;;;;;5056588;28;20194;-66
2022/01/29 09:15:25;;;;;;;6.07;3.07;;;6.40;99.90;;;;;;5058375;28;20230;-66
2022/01/29 09:17:52;;;;;;;5.43;2.90;;;6.40;99.90;;;;;;5056937;28;20187;-70
2022/01/29 09:20:19;;;;;;;5.23;3.10;;;6.40;99.90;;;;;;5054294;28;20198;-69
2022/01/29 09:22:46;;;;;;;4.30;2.67;;;6.40;99.90;;;;;;5061152;28;20735;-69
2022/01/29 09:25:13;;;;;;;4.27;2.57;;;6.40;99.90;;;;;;5054622;28;20573;-68
2022/01/29 09:27:40;;;;;;;4.37;2.67;;;6.30;99.90;;;;;;5050650;28;20206;-68
2022/01/29 09:30:08;;;;;;;3.73;2.43;;;6.30;99.90;;;;;;5057448;28;20872;-67
2022/01/29 09:32:35;;;;;;;3.80;2.20;;;6.40;99.90;;;;;;5056381;28;20283;-68
2022/01/29 09:35:03;;;;;;;2.57;2.10;;;6.40;99.90;;;;;;5081199;28;20220;-67
2022/01/29 09:37:29;;;;;;;3.87;2.37;;;6.50;99.90;;;;;;5059350;28;20192;-68
2022/01/29 09:39:56;;;;;;;2.73;1.90;;;6.40;99.90;;;;;;5057643;28;20216;-70
2022/01/29 09:42:24;;;;;;;3.67;2.10;;;6.60;99.90;;;;;;5061967;28;20321;-72
2022/01/29 09:44:52;;;;;;;3.00;2.10;;;6.60;99.90;;;;;;5062323;28;20386;-70
2022/01/29 09:47:23;;;;;;;3.37;1.97;;;6.50;99.90;;;;;;5056225;28;20520;-70
2022/01/29 09:49:52;;;;;;;2.30;2.00;;;6.60;99.90;;;;;;5063440;28;20683;-70
2022/01/29 09:52:19;;;;;;;2.20;1.70;;;6.60;99.90;;;;;;5058506;28;20222;-69
2022/01/29 09:54:48;;;;;;;2.80;1.70;;;6.70;99.90;;;;;;5074346;28;21277;-69
2022/01/29 09:57:15;;;;;;;2.93;1.90;;;6.70;99.90;;;;;;5060479;28;20199;-70
2022/01/29 09:59:42;;;;;;;2.30;1.70;;;6.80;99.90;;;;;;5060400;28;20214;-70
2022/01/29 10:02:17;;;;;;;4.63;2.20;;;6.90;99.90;;;;;;5058744;28;20217;-70
2022/01/29 10:04:51;;;;;;;3.30;1.90;;;7.00;99.90;;;;;;5068669;28;20222;-70
2022/01/29 10:07:20;;;;;;;2.30;1.40;;;7.00;99.90;;;;;;5058922;28;20201;-68
2022/01/29 10:09:47;;;;;;;3.20;1.47;;;7.00;99.90;;;;;;5061545;28;20207;-67
2022/01/29 10:12:15;;;;;;;2.73;1.60;;;7.10;99.90;;;;;;5057406;28;20309;-68
2022/01/29 10:15:07;;;;;;;2.20;1.20;;;7.00;99.90;;;;;;5078285;28;20248;-69
2022/01/29 10:17:44;;;;;;;2.23;1.60;;;7.10;99.90;;;;;;5059692;28;20206;-69
2022/01/29 10:20:24;;;;;;;1.67;1.47;;;6.90;99.90;;;;;;5057210;28;20240;-69
2022/01/29 10:22:53;;;;;;;2.20;1.53;;;7.00;99.90;;;;;;5065394;28;20202;-70
2022/01/29 10:25:23;;;;;;;2.10;1.43;;;7.00;99.90;;;;;;5064554;28;20309;-72
2022/01/29 10:28:12;;;;;;;2.70;1.50;;;7.10;99.90;;;;;;5057178;28;20199;-71
2022/01/29 10:30:48;;;;;;;2.73;1.70;;;7.10;99.90;;;;;;5057572;28;20215;-70
2022/01/29 10:33:48;;;;;;;2.33;1.77;;;7.20;99.90;;;;;;5075184;28;20205;-73
2022/01/29 10:36:17;;;;;;;4.53;1.40;;;7.30;99.90;;;;;;5058726;28;20700;-72
2022/01/29 10:38:43;;;;;;;2.27;1.40;;;7.40;99.90;;;;;;5054863;28;20194;-72
2022/01/29 10:41:23;;;;;;;2.40;1.50;;;7.30;99.90;;;;;;5059411;28;20225;-71
2022/01/29 10:44:36;;;;;;;1.87;1.53;;;7.30;99.90;;;;;;5061912;28;20223;-72
2022/01/29 10:46:57;;;;;;;2.93;1.70;;;7.30;99.90;;;;;;5061543;28;20198;-73
2022/01/29 10:49:28;;;;;;;1.97;1.40;;;7.30;99.90;;;;;;5059064;28;20210;-74
2022/01/29 10:52:00;;;;;;;1.87;1.50;;;7.40;99.90;;;;;;5063988;28;20226;-75
2022/01/29 10:54:28;;;;;;;1.90;1.40;;;7.40;99.90;;;;;;5062469;28;20252;-70
2022/01/29 10:56:58;;;;;;;2.27;1.43;;;7.40;99.90;;;;;;5063211;28;20691;-71
2022/01/29 10:59:27;;;;;;;5.17;1.77;;;7.40;99.90;;;;;;5056401;28;20203;-73
2022/01/29 11:01:59;;;;;;;2.07;1.40;;;7.50;99.90;;;;;;5063471;28;20202;-74
2022/01/29 11:04:28;;;;;;;1.30;1.20;;;7.50;99.90;;;;;;5059282;28;20223;-72
2022/01/29 11:07:00;;;;;;;2.53;1.50;;;7.40;99.90;;;;;;5064499;28;20202;-74
2022/01/29 11:09:28;;;;;;;2.00;1.40;;;7.40;99.90;;;;;;5056096;28;20206;-70
2022/01/29 11:11:57;;;;;;;1.30;1.20;;;7.40;99.90;;;;;;5061164;28;20219;-71
2022/01/29 11:14:25;;;;;;;2.77;1.73;;;7.50;99.90;;;;;;5061746;28;20217;-71
2022/01/29 11:16:52;;;;;;;5.13;2.50;;;7.50;99.90;;;;;;5073326;28;20203;-68
2022/01/29 11:19:21;;;;;;;2.30;1.60;;;7.60;99.90;;;;;;5066021;28;20664;-68
2022/01/29 11:21:53;;;;;;;4.73;2.10;;;7.70;99.90;;;;;;5068064;28;20685;-68
2022/01/29 11:24:23;;;;;;;2.57;1.90;;;7.80;99.90;;;;;;5065366;28;20229;-68
2022/01/29 11:26:50;;;;;;;3.17;1.90;;;7.90;99.90;;;;;;5068195;28;20206;-68
2022/01/29 11:29:32;;;;;;;3.33;1.60;;;8.00;99.90;;;;;;5067133;28;20206;-68
2022/01/29 11:32:20;;;;;;;2.10;1.50;;;8.00;99.90;;;;;;5065895;28;20211;-68
2022/01/29 11:35:05;;;;;;;1.70;1.40;;;8.00;99.90;;;;;;5070262;28;20207;-68
2022/01/29 11:37:58;;;;;;;1.97;1.60;;;7.90;99.90;;;;;;5061777;28;20196;-68
2022/01/29 11:40:38;;;;;;;2.10;1.53;;;7.90;99.90;;;;;;5075719;28;20676;-68
2022/01/29 11:43:14;;;;;;;1.73;1.50;;;7.80;99.90;;;;;;5065123;28;20208;-68
2022/01/29 11:45:58;;;;;;;2.03;1.80;;;7.80;99.90;;;;;;5062388;28;20229;-68
2022/01/29 11:48:33;;;;;;;9.60;4.30;;;7.80;99.90;;;;;;5061846;28;20236;-68
2022/01/29 11:51:02;;;;;;;10.37;5.40;;;7.90;99.90;;;;;;5069492;28;20198;-68
2022/01/29 11:53:48;;;;;;;2.93;2.13;;;7.90;99.90;;;;;;5065976;28;20228;-68
2022/01/29 11:56:28;;;;;;;3.00;2.20;;;8.00;99.90;;;;;;5064876;28;20193;-68
2022/01/29 11:59:19;;;;;;;3.57;2.23;;;8.00;99.90;;;;;;5067646;28;20203;-68
2022/01/29 12:01:51;;;;;;;3.37;2.07;;;7.90;99.90;;;;;;5063996;28;20201;-68
2022/01/29 12:04:21;;;;;;;4.43;1.70;;;7.90;99.90;;;;;;5065557;28;20225;-68
2022/01/29 12:07:10;;;;;;;2.87;1.97;;;7.90;99.90;;;;;;5056717;28;20254;-68
2022/01/29 12:09:48;;;;;;;2.73;2.10;;;7.90;99.90;;;;;;5068295;28;20220;-68
2022/01/29 12:12:22;;;;;;;2.83;2.10;;;7.90;99.90;;;;;;5063782;28;20683;-68
2022/01/29 12:14:57;;;;;;;3.57;2.17;;;8.00;99.90;;;;;;5067415;28;20278;-68
2022/01/29 12:17:47;;;;;;;3.53;2.03;;;8.00;99.90;;;;;;5068526;28;20208;-68
2022/01/29 12:20:19;;;;;;;2.37;1.77;;;8.10;99.90;;;;;;5061449;28;20188;-68
2022/01/29 12:22:49;;;;;;;3.00;2.00;;;8.10;99.90;;;;;;5064546;28;20204;-67
2022/01/29 12:25:19;;;;;;;4.03;2.57;;;8.10;99.90;;;;;;5062954;28;20700;-67
2022/01/29 12:27:51;;;;;;;5.00;2.53;;;8.20;99.90;;;;;;5067658;28;21748;-66
2022/01/29 12:30:26;;;;;;;3.30;2.30;;;8.20;99.90;;;;;;5064585;28;20580;-67
2022/01/29 12:32:59;;;;;;;3.97;2.57;;;8.20;99.90;;;;;;5065889;28;20213;-67
2022/01/29 12:35:43;;;;;;;3.13;2.30;;;8.20;99.90;;;;;;5068214;28;20222;-67
2022/01/29 12:38:15;;;;;;;3.60;2.37;;;8.20;99.90;;;;;;5070556;28;20190;-67
2022/01/29 12:40:57;;;;;;;4.60;3.10;;;8.10;99.90;;;;;;5064309;28;20277;-67
2022/01/29 12:43:31;;;;;;;4.40;2.70;;;8.10;99.90;;;;;;5062005;28;20212;-67
2022/01/29 12:46:19;;;;;;;2.60;2.10;;;8.20;99.90;;;;;;5065935;28;20632;-68
2022/01/29 12:49:06;;;;;;;5.37;3.20;;;8.20;99.90;;;;;;5068596;28;20200;-68
2022/01/29 12:51:36;;;;;;;4.30;2.60;;;8.10;99.90;;;;;;5066421;28;20687;-68
2022/01/29 12:54:07;;;;;;;4.43;2.83;;;8.10;99.90;;;;;;5063063;28;20219;-68
2022/01/29 12:56:36;;;;;;;5.17;2.70;;;8.20;99.90;;;;;;5065606;28;20273;-68
2022/01/29 12:59:08;;;;;;;10.30;5.00;;;8.30;99.90;;;;;;5061150;28;20244;-67
2022/01/29 13:01:36;;;;;;;10.27;5.10;;;8.40;99.90;;;;;;5065971;28;20190;-67
2022/01/29 13:04:13;;;;;;;4.77;3.00;;;8.50;99.90;;;;;;5060546;28;20224;-68
2022/01/29 13:06:40;;;;;;;5.70;2.90;;;8.60;99.90;;;;;;5067264;28;20194;-65
2022/01/29 13:09:11;;;;;;;4.27;2.83;;;8.50;99.90;;;;;;5061623;28;20196;-68
2022/01/29 13:11:38;;;;;;;2.53;1.93;;;8.50;99.90;;;;;;5067382;28;20193;-68
2022/01/29 13:14:18;;;;;;;2.50;1.57;;;8.60;99.90;;;;;;5065806;28;20214;-68
2022/01/29 13:16:47;;;;;;;1.53;1.27;;;8.60;99.90;;;;;;5062375;28;20672;-69
2022/01/29 13:19:15;;;;;;;2.23;1.50;;;8.70;99.90;;;;;;5059453;28;20217;-67